Kezdőlap
METAR-TAF:

METAR-TAF

Repülőterek :

Pécs, Magyarország

földrajzi szélesség: 46-06N, földrajzi hosszúság: 018-14E, magasság: 201 m

Jelenlegi meteorológiai megfigyelések

A jelentés 2 órával és 18 perccel ezelõtt készült, 17:15 UTC
Délnyugati szél 5 kt
Hőmérséklet 9°C
Páratartalom 71%
Légköri nyomás 1004 hPa
Látótávolság 10 km, vagy több
felhőtlen 1500 m magasságban, és nincs gomolyfelhõ

METAR: LHPP 251715Z 22005KT CAVOK 09/04 Q1004

Idő: 20:33 (19:33 UTC)

Előrejelzés

A jelentés 5 órával és 18 perccel ezelõtt készült, 14:15 UTC
Az előrejelzés 25-én 15 óra UTC és 25-én 24 óra UTC között érvényes
Nyugat-délnyugati szél 9 kt
Látótávolság 10 km, vagy több
felhőtlen 1500 m magasságban, és nincs gomolyfelhõ

TAF: LHPP 251415Z 2515/2524 25009KT CAVOK

Meteorológiai megfigyelések és előrejelzések több, mint 4000 repülőtéren (METAR és TAF jelentéseket).

A térképen piros és sárga pontok jelzik az elérhető meteorológiai állomásokat.

Mozgassa az egeret a pont fölött, hogy megjelenjen az állomás neve.

Azután kattintson az időjárási megfigyelések és előrejelzések megtekintéséhez.

A térkép megváltoztatása: kattintson a fekete keresztel jelölt zöld gombra ráközelítéshez, a vonallal jelölt zöld gombra távolításhoz, vagy a zöld nyilakra a szomszédos térképek eléréséhez.


METAR-TAF: